createdAt,value
2023-01-25T00:02:57.400Z,65537.19
2023-01-25T00:08:01.730Z,65507.47
2023-01-25T00:13:07.592Z,65538.56
2023-01-25T00:18:11.548Z,65523.97
2023-01-25T00:23:16.146Z,65518.66
2023-01-25T00:28:22.897Z,65489.22
2023-01-25T00:33:37.657Z,65526.63
2023-01-25T00:38:45.192Z,65527.72
2023-01-25T00:43:53.894Z,65542.09
2023-01-25T00:48:58.711Z,65535.41
2023-01-25T00:54:03.255Z,65473.13
2023-01-25T00:59:09.660Z,65498.28
2023-01-25T01:04:15.635Z,65480.59
2023-01-25T01:09:22.283Z,65449.88
2023-01-25T01:14:32.490Z,65473.75
2023-01-25T01:19:40.162Z,65466.41
2023-01-25T01:24:45.282Z,65471.00
2023-01-25T01:29:51.518Z,65474.41
2023-01-25T01:34:57.069Z,65511.63
2023-01-25T01:40:01.913Z,65411.88
2023-01-25T01:45:39.792Z,65436.56
2023-01-25T01:50:46.556Z,65523.34
2023-01-25T01:55:52.566Z,65448.09
2023-01-25T02:00:57.731Z,65472.69
2023-01-25T02:06:09.076Z,65544.03
2023-01-25T02:11:14.273Z,65566.63
2023-01-25T02:16:24.172Z,65508.00
2023-01-25T02:21:39.418Z,65540.59
2023-01-25T02:26:46.008Z,65499.78
2023-01-25T02:31:52.834Z,65529.09
2023-01-25T02:36:57.743Z,65591.19
2023-01-25T02:42:04.248Z,65419.97
2023-01-25T02:47:09.042Z,65463.75
2023-01-25T02:52:13.778Z,65297.50
2023-01-25T02:57:21.711Z,65292.81
2023-01-25T03:02:28.411Z,65289.59
2023-01-25T03:07:35.002Z,65269.63
2023-01-25T03:12:43.088Z,65227.91
2023-01-25T03:17:48.182Z,65273.13
2023-01-25T03:22:52.992Z,65365.00
2023-01-25T03:27:59.633Z,65338.56
2023-01-25T03:33:04.768Z,65365.22
2023-01-25T03:38:10.920Z,65366.28
2023-01-25T03:43:17.551Z,65397.78
2023-01-25T03:48:28.863Z,65375.50
2023-01-25T03:53:34.054Z,65338.56
2023-01-25T03:58:49.347Z,65462.66
2023-01-25T04:03:54.965Z,65397.69
2023-01-25T04:08:59.697Z,65410.81
2023-01-25T04:14:11.984Z,65396.53
2023-01-25T04:19:25.402Z,65425.38
2023-01-25T04:24:34.208Z,65418.91
2023-01-25T04:29:41.893Z,65345.81
2023-01-25T04:34:53.060Z,65347.53
2023-01-25T04:40:00.618Z,65343.38
2023-01-25T04:45:13.095Z,65304.41
2023-01-25T04:50:18.873Z,65303.25
2023-01-25T04:55:24.840Z,65331.47
2023-01-25T05:00:33.305Z,65338.56
2023-01-25T05:05:39.272Z,65336.88
2023-01-25T05:10:49.100Z,65256.00
2023-01-25T05:16:11.899Z,65319.94
2023-01-25T05:21:32.850Z,65315.69
2023-01-25T05:26:55.044Z,65352.84
2023-01-25T05:32:01.647Z,65386.50
2023-01-25T05:37:09.264Z,65298.56
2023-01-25T05:42:19.880Z,65273.44
2023-01-25T05:47:26.729Z,65280.47
2023-01-25T05:52:33.009Z,65323.69
2023-01-25T05:57:37.934Z,65314.63
2023-01-25T06:02:44.229Z,65330.28
2023-01-25T06:07:54.224Z,65351.34
2023-01-25T06:13:02.044Z,65391.19
2023-01-25T06:18:08.616Z,65345.81
2023-01-25T06:23:36.316Z,65391.72
2023-01-25T06:28:43.927Z,65434.88
2023-01-25T06:33:53.023Z,65413.13
2023-01-25T06:39:00.510Z,65431.25
2023-01-25T06:44:05.353Z,65459.38
2023-01-25T06:49:12.053Z,65411.88
2023-01-25T06:54:16.498Z,65411.34
2023-01-25T06:59:21.009Z,65451.50
2023-01-25T07:04:26.897Z,65520.34
2023-01-25T07:09:30.980Z,65515.66
2023-01-25T07:14:35.452Z,65578.69
2023-01-25T07:19:41.304Z,65526.09
2023-01-25T07:24:50.159Z,65380.44
2023-01-25T07:29:55.118Z,65447.66
2023-01-25T07:35:00.927Z,65423.69
2023-01-25T07:40:06.303Z,65469.59
2023-01-25T07:45:12.300Z,65522.47
2023-01-25T07:50:18.811Z,65496.69
2023-01-25T07:55:23.687Z,65513.41
2023-01-25T08:00:28.564Z,65480.06
2023-01-25T08:05:34.505Z,65548.50
2023-01-25T08:10:40.497Z,65370.53
2023-01-25T08:15:45.901Z,65313.44
2023-01-25T08:20:52.107Z,65391.28
2023-01-25T08:25:57.648Z,65533.38
2023-01-25T08:31:09.557Z,65585.84
2023-01-25T08:36:16.860Z,65606.09
2023-01-25T08:41:21.471Z,65634.72
2023-01-25T08:46:30.155Z,65526.09
2023-01-25T08:51:37.517Z,65577.72
2023-01-25T08:56:42.451Z,65615.53
2023-01-25T09:01:46.981Z,65667.31
2023-01-25T09:06:52.781Z,65704.47
2023-01-25T09:11:56.811Z,65604.41
2023-01-25T09:17:01.163Z,65627.34
2023-01-25T09:22:07.029Z,65624.34
2023-01-25T09:27:11.097Z,65609.28
2023-01-25T09:32:15.594Z,65526.09
2023-01-25T09:37:31.238Z,65453.63
2023-01-25T09:42:45.137Z,65543.50
2023-01-25T09:47:55.925Z,65510.66
2023-01-25T09:53:33.076Z,65546.16
2023-01-25T09:58:41.659Z,65473.88
2023-01-25T10:03:54.145Z,65530.38
2023-01-25T10:09:08.816Z,65496.06
2023-01-25T10:14:16.707Z,65439.03
2023-01-25T10:19:27.077Z,65555.97
2023-01-25T10:25:04.780Z,65492.34
2023-01-25T10:30:25.484Z,65482.94
2023-01-25T10:35:39.248Z,65457.88
2023-01-25T10:40:51.930Z,65467.91
2023-01-25T10:45:57.840Z,65404.09
2023-01-25T10:51:02.365Z,65448.19
2023-01-25T10:56:19.465Z,65422.09
2023-01-25T11:01:30.769Z,65386.41
2023-01-25T11:06:37.919Z,65405.69
2023-01-25T11:11:43.796Z,65425.63
2023-01-25T11:16:50.288Z,65420.25
2023-01-25T11:21:56.404Z,65423.59
2023-01-25T11:27:15.784Z,65449.78
2023-01-25T11:32:25.897Z,65516.41
2023-01-25T11:37:49.950Z,65441.25
2023-01-25T11:43:04.356Z,65488.69
2023-01-25T11:48:26.420Z,65505.22
2023-01-25T11:53:57.467Z,65380.63
2023-01-25T11:59:18.183Z,65363.41
2023-01-25T12:04:48.825Z,65375.22
2023-01-25T12:10:05.577Z,65376.69
2023-01-25T12:15:29.152Z,65464.16
2023-01-25T12:20:44.258Z,65530.91
2023-01-25T12:25:59.476Z,65529.31
2023-01-25T12:31:10.944Z,65508.00
2023-01-25T12:36:23.008Z,65558.63
2023-01-25T12:41:40.383Z,65563.88
2023-01-25T12:46:49.956Z,65552.56
2023-01-25T12:52:00.572Z,65548.59
2023-01-25T12:57:13.192Z,65501.94
2023-01-25T13:02:47.121Z,65535.16
2023-01-25T13:08:03.635Z,65616.78
2023-01-25T13:13:21.668Z,65595.78
2023-01-25T13:18:41.853Z,65516.72
2023-01-25T13:23:48.682Z,65554.38
2023-01-25T13:28:54.495Z,65556.50
2023-01-25T13:34:00.341Z,65559.59
2023-01-25T13:39:45.399Z,65571.97
2023-01-25T13:44:52.059Z,65561.22
2023-01-25T13:50:02.217Z,65512.78
2023-01-25T13:55:19.296Z,65537.28
2023-01-25T14:00:24.394Z,65516.94
2023-01-25T14:05:28.828Z,65509.59
2023-01-25T14:10:34.607Z,65391.72
2023-01-25T14:15:39.139Z,65406.75
2023-01-25T14:20:44.583Z,65388.00
2023-01-25T14:25:50.530Z,65396.09
2023-01-25T14:30:55.978Z,65340.16
2023-01-25T14:36:16.362Z,65387.47
2023-01-25T14:41:34.041Z,65362.00
2023-01-25T14:46:39.983Z,65406.09
2023-01-25T14:51:46.946Z,65481.31
2023-01-25T14:56:55.168Z,65472.91
2023-01-25T15:02:01.988Z,65520.25
2023-01-25T15:07:17.738Z,65501.59
2023-01-25T15:12:27.416Z,65568.13
2023-01-25T15:17:48.701Z,65388.09
2023-01-25T15:22:53.005Z,65370.31
2023-01-25T15:27:58.790Z,65466.22
2023-01-25T15:33:03.368Z,65398.00
2023-01-25T15:38:10.971Z,65451.28
2023-01-25T15:43:18.665Z,65476.97
2023-01-25T15:48:29.492Z,65394.50
2023-01-25T15:53:33.852Z,65301.34
2023-01-25T15:58:42.335Z,65364.16
2023-01-25T16:03:46.861Z,65384.38
2023-01-25T16:08:51.206Z,65359.88
2023-01-25T16:13:58.029Z,65248.53
2023-01-25T16:19:02.488Z,65335.72
2023-01-25T16:24:07.166Z,65385.44
2023-01-25T16:29:13.921Z,65401.94
2023-01-25T16:34:18.433Z,65389.06
2023-01-25T16:39:25.424Z,65310.47
2023-01-25T16:44:32.546Z,65335.38
2023-01-25T16:49:37.024Z,65407.81
2023-01-25T16:54:41.451Z,65386.59
2023-01-25T16:59:47.414Z,65339.09
2023-01-25T17:04:51.917Z,65417.31
2023-01-25T17:09:56.505Z,65471.72
2023-01-25T17:15:02.188Z,65391.72
2023-01-25T17:20:06.652Z,65292.38
2023-01-25T17:25:11.172Z,65352.84
2023-01-25T17:30:18.609Z,65380.97
2023-01-25T17:35:22.987Z,65326.25
2023-01-25T17:40:27.535Z,65393.97
2023-01-25T17:45:38.605Z,65401.31
2023-01-25T17:50:43.199Z,65354.34
2023-01-25T17:55:47.658Z,65382.75
2023-01-25T18:00:59.363Z,65319.41
2023-01-25T18:06:10.214Z,65350.81
2023-01-25T18:11:17.449Z,65331.88
2023-01-25T18:16:24.594Z,65386.50
2023-01-25T18:21:31.775Z,65315.16
2023-01-25T18:26:38.187Z,65362.53
2023-01-25T18:31:45.593Z,65335.38
2023-01-25T18:36:51.250Z,65326.88
2023-01-25T18:41:56.105Z,65327.84
2023-01-25T18:47:01.989Z,65338.03
2023-01-25T18:52:11.684Z,65340.06
2023-01-25T18:57:17.097Z,65318.34
2023-01-25T19:02:23.679Z,65368.28
2023-01-25T19:07:28.283Z,65325.81
2023-01-25T19:12:32.622Z,65328.38
2023-01-25T19:17:38.525Z,65298.03
2023-01-25T19:22:42.524Z,65296.44
2023-01-25T19:27:47.204Z,65281.66
2023-01-25T19:32:53.188Z,65291.00
2023-01-25T19:37:58.157Z,65248.84
2023-01-25T19:43:02.702Z,65303.34
2023-01-25T19:48:09.137Z,65277.50
2023-01-25T19:53:13.816Z,65329.00
2023-01-25T19:58:18.207Z,65268.13
2023-01-25T20:03:27.623Z,65277.28
2023-01-25T20:08:43.465Z,65282.28
2023-01-25T20:13:51.090Z,65278.44
2023-01-25T20:18:58.024Z,65295.38
2023-01-25T20:24:06.940Z,65281.44
2023-01-25T20:29:13.257Z,65267.50
2023-01-25T20:34:21.975Z,65249.59
2023-01-25T20:39:26.426Z,65292.28
2023-01-25T20:44:30.738Z,65268.75
2023-01-25T20:49:38.340Z,65324.22
2023-01-25T20:54:43.101Z,65327.41
2023-01-25T20:59:47.527Z,65276.13
2023-01-25T21:04:53.411Z,65307.59
2023-01-25T21:09:57.864Z,65387.34
2023-01-25T21:15:02.414Z,65415.69
2023-01-25T21:20:09.655Z,65275.59
2023-01-25T21:25:13.973Z,65360.31
2023-01-25T21:30:19.058Z,65264.06
2023-01-25T21:35:24.788Z,65273.66
2023-01-25T21:40:30.692Z,65276.84
2023-01-25T21:45:52.845Z,65296.44
2023-01-25T21:51:21.522Z,65283.13
2023-01-25T21:56:25.912Z,65287.06
2023-01-25T22:01:35.172Z,65324.53
2023-01-25T22:06:41.279Z,65337.50
2023-01-25T22:11:46.862Z,65381.69
2023-01-25T22:16:51.313Z,65336.34
2023-01-25T22:21:57.283Z,65316.13
2023-01-25T22:27:28.465Z,65366.81
2023-01-25T22:32:32.786Z,65301.34
2023-01-25T22:37:39.318Z,65312.91
2023-01-25T22:42:43.795Z,65259.84
2023-01-25T22:47:48.351Z,65249.19
2023-01-25T22:52:54.181Z,65234.81
2023-01-25T22:57:58.311Z,65267.69
2023-01-25T23:03:02.664Z,65281.53
2023-01-25T23:08:11.354Z,65262.81
2023-01-25T23:13:15.690Z,65310.78
2023-01-25T23:18:37.331Z,65256.19
2023-01-25T23:23:43.351Z,65346.03
2023-01-25T23:28:53.120Z,65378.84
2023-01-25T23:34:00.159Z,65344.97
2023-01-25T23:39:06.956Z,65273.03
2023-01-25T23:44:11.459Z,65277.28
2023-01-25T23:49:15.791Z,65390.22
2023-01-25T23:54:21.814Z,65470.47
2023-01-25T23:59:25.954Z,65473.88
